07:48
Airports
History
Links
Donate
Help keep this website running!
PayPal
Bitcoin
This page is community maintained. The information is intended for PC simulator navigation or reference.
Always use approved charts for navigation.
YBLV
Belvoir Park Function CentreEdited 30-Jun-2011
Belvoir Park Function Centre (YBLV)
Upper Swan, Western Australia, Australia (6069)
4
Lat/Lng:31° 47' 28.81" S / 116° 1' 7.12" E
-31.791336 / 116.018645
Elevation:77'ft / 23mMSL
ID / ICAO:YBLV
Runways:1
Longest:06-24
Grass 676m / 2,218ft
(Edited 2011-06-30) [ Sign in to Edit ]
Nearby Weather07:30 GMT 2018-02-25
Nearby weather at YPEA, Pearce located 8.2 nautical miles from YBLV
Altimeter: 29.68
Visibility: 6.2 statute miles
Wind: 5 knots (from 020°)
Temp: 29°c / 84°f
Humidity: 58.4%

METAR: YPEA 250730Z AUTO 02005KT 9999 // SCT036 SCT045 BKN120 29/20 Q1005

(Powered by phpweather)
Runway 06 / 24
Dimensions:675.9 x 91.1m 2218' x 299'ft
Surface:Grass
Runway 06 [A]Runway 24 [B]
Heading:059°TH 239°TH
Lat:
Lng:
31° 47' 34.29"S
116° 0' 56.11"E
31° 47' 23.33"S
116° 1' 18.13"E
User Notes and Comments
31° 47' 28.81" S / 116° 1' 7.12" E
Distance To
Airport ID:
Nearby Airports
4 Caversham (RAAF disused) 4.2 NM
YCVM SW 219°
(C) Pearce 8.2 NM
YPEA ( WX ) N 358°
(C) Perth 10.9 NM
YPPH ( WX ) SSW 195°
4 Langley Park 14.7 NM
YPLP SW 216°
4 MUNDARING WEIR 15.2 NM
YMWR SE 139°
(C) Jandakot 22.7 NM
YPJT SSW 201°
(C) Gingin 24.4 NM
YGIG NNW 337°
VFR Chart
Flight Planning at SkyVector.com